sensor_id;sensor_type;location;lat;lon;timestamp;P1;durP1;ratioP1;P2;durP2;ratioP2
25207;SDS011;13153;52.316;21.166;2023-11-19T00:01:40;74.95;;;37.22;;
25207;SDS011;13153;52.316;21.166;2023-11-19T00:04:05;80.75;;;37.50;;
25207;SDS011;13153;52.316;21.166;2023-11-19T00:06:31;76.40;;;36.50;;
25207;SDS011;13153;52.316;21.166;2023-11-19T00:08:57;76.65;;;36.45;;
25207;SDS011;13153;52.316;21.166;2023-11-19T00:11:22;75.13;;;36.33;;
25207;SDS011;13153;52.316;21.166;2023-11-19T00:13:48;82.20;;;37.47;;
25207;SDS011;13153;52.316;21.166;2023-11-19T00:16:14;73.05;;;37.08;;
25207;SDS011;13153;52.316;21.166;2023-11-19T00:18:41;73.30;;;36.03;;
25207;SDS011;13153;52.316;21.166;2023-11-19T00:21:07;74.72;;;36.58;;
25207;SDS011;13153;52.316;21.166;2023-11-19T00:23:35;76.93;;;36.50;;
25207;SDS011;13153;52.316;21.166;2023-11-19T00:26:02;77.53;;;37.75;;
25207;SDS011;13153;52.316;21.166;2023-11-19T00:28:31;72.13;;;36.20;;
25207;SDS011;13153;52.316;21.166;2023-11-19T00:30:58;72.53;;;34.55;;
25207;SDS011;13153;52.316;21.166;2023-11-19T00:33:24;72.20;;;35.97;;
25207;SDS011;13153;52.316;21.166;2023-11-19T00:35:49;72.70;;;35.15;;
25207;SDS011;13153;52.316;21.166;2023-11-19T00:38:15;74.60;;;36.53;;
25207;SDS011;13153;52.316;21.166;2023-11-19T00:40:41;74.00;;;35.60;;
25207;SDS011;13153;52.316;21.166;2023-11-19T00:43:07;76.03;;;38.17;;
25207;SDS011;13153;52.316;21.166;2023-11-19T00:45:32;73.35;;;35.78;;
25207;SDS011;13153;52.316;21.166;2023-11-19T00:47:58;70.45;;;35.92;;
25207;SDS011;13153;52.316;21.166;2023-11-19T00:50:24;71.45;;;34.97;;
25207;SDS011;13153;52.316;21.166;2023-11-19T00:52:50;78.53;;;36.60;;
25207;SDS011;13153;52.316;21.166;2023-11-19T00:55:16;83.15;;;36.53;;
25207;SDS011;13153;52.316;21.166;2023-11-19T00:57:42;74.97;;;36.22;;
25207;SDS011;13153;52.316;21.166;2023-11-19T01:00:08;74.20;;;34.88;;
25207;SDS011;13153;52.316;21.166;2023-11-19T01:02:47;76.45;;;36.17;;
25207;SDS011;13153;52.316;21.166;2023-11-19T01:05:14;78.07;;;36.45;;
25207;SDS011;13153;52.316;21.166;2023-11-19T01:07:40;79.57;;;37.08;;
25207;SDS011;13153;52.316;21.166;2023-11-19T01:10:06;80.53;;;35.97;;
25207;SDS011;13153;52.316;21.166;2023-11-19T01:12:33;76.95;;;36.45;;
25207;SDS011;13153;52.316;21.166;2023-11-19T01:14:59;75.10;;;36.67;;
25207;SDS011;13153;52.316;21.166;2023-11-19T01:17:26;73.63;;;35.95;;
25207;SDS011;13153;52.316;21.166;2023-11-19T01:19:51;77.75;;;37.55;;
25207;SDS011;13153;52.316;21.166;2023-11-19T01:22:17;77.03;;;38.08;;
25207;SDS011;13153;52.316;21.166;2023-11-19T01:24:44;81.80;;;38.50;;
25207;SDS011;13153;52.316;21.166;2023-11-19T01:27:09;80.93;;;37.22;;
25207;SDS011;13153;52.316;21.166;2023-11-19T01:29:35;76.55;;;36.65;;
25207;SDS011;13153;52.316;21.166;2023-11-19T01:32:03;80.30;;;36.83;;
25207;SDS011;13153;52.316;21.166;2023-11-19T01:34:29;75.10;;;35.40;;
25207;SDS011;13153;52.316;21.166;2023-11-19T01:36:55;70.13;;;33.83;;
25207;SDS011;13153;52.316;21.166;2023-11-19T01:39:20;74.30;;;35.00;;
25207;SDS011;13153;52.316;21.166;2023-11-19T01:41:46;71.75;;;33.75;;
25207;SDS011;13153;52.316;21.166;2023-11-19T01:44:12;73.28;;;35.42;;
25207;SDS011;13153;52.316;21.166;2023-11-19T01:46:38;72.15;;;34.15;;
25207;SDS011;13153;52.316;21.166;2023-11-19T01:49:08;79.97;;;35.35;;
25207;SDS011;13153;52.316;21.166;2023-11-19T01:51:36;75.88;;;35.67;;
25207;SDS011;13153;52.316;21.166;2023-11-19T01:54:05;73.18;;;35.42;;
25207;SDS011;13153;52.316;21.166;2023-11-19T01:56:32;71.15;;;36.13;;
25207;SDS011;13153;52.316;21.166;2023-11-19T01:59:00;76.18;;;35.70;;
25207;SDS011;13153;52.316;21.166;2023-11-19T02:01:27;71.63;;;34.00;;
25207;SDS011;13153;52.316;21.166;2023-11-19T02:03:54;72.47;;;33.55;;
25207;SDS011;13153;52.316;21.166;2023-11-19T02:06:20;72.82;;;33.47;;
25207;SDS011;13153;52.316;21.166;2023-11-19T02:08:46;70.45;;;33.92;;
25207;SDS011;13153;52.316;21.166;2023-11-19T02:11:12;70.63;;;34.33;;
25207;SDS011;13153;52.316;21.166;2023-11-19T02:13:38;65.78;;;33.40;;
25207;SDS011;13153;52.316;21.166;2023-11-19T02:16:06;69.03;;;33.22;;
25207;SDS011;13153;52.316;21.166;2023-11-19T02:18:34;62.90;;;31.05;;
25207;SDS011;13153;52.316;21.166;2023-11-19T02:21:00;61.22;;;29.98;;
25207;SDS011;13153;52.316;21.166;2023-11-19T02:23:26;61.67;;;31.25;;
25207;SDS011;13153;52.316;21.166;2023-11-19T02:26:39;58.47;;;29.48;;
25207;SDS011;13153;52.316;21.166;2023-11-19T02:28:43;61.53;;;30.92;;
25207;SDS011;13153;52.316;21.166;2023-11-19T02:31:09;62.20;;;31.08;;
25207;SDS011;13153;52.316;21.166;2023-11-19T02:33:36;66.30;;;31.83;;
25207;SDS011;13153;52.316;21.166;2023-11-19T02:36:06;62.42;;;30.73;;
25207;SDS011;13153;52.316;21.166;2023-11-19T02:38:34;65.93;;;31.38;;
25207;SDS011;13153;52.316;21.166;2023-11-19T02:41:04;69.38;;;32.22;;
25207;SDS011;13153;52.316;21.166;2023-11-19T02:43:31;68.57;;;33.55;;
25207;SDS011;13153;52.316;21.166;2023-11-19T02:46:02;66.25;;;31.63;;
25207;SDS011;13153;52.316;21.166;2023-11-19T02:48:35;70.07;;;33.63;;
25207;SDS011;13153;52.316;21.166;2023-11-19T02:51:02;71.07;;;33.15;;
25207;SDS011;13153;52.316;21.166;2023-11-19T02:53:28;68.28;;;33.00;;
25207;SDS011;13153;52.316;21.166;2023-11-19T02:55:55;69.22;;;32.00;;
25207;SDS011;13153;52.316;21.166;2023-11-19T02:58:27;68.80;;;31.90;;
25207;SDS011;13153;52.316;21.166;2023-11-19T03:00:54;72.53;;;33.53;;
25207;SDS011;13153;52.316;21.166;2023-11-19T03:03:24;70.10;;;32.58;;
25207;SDS011;13153;52.316;21.166;2023-11-19T03:06:03;70.13;;;32.95;;
25207;SDS011;13153;52.316;21.166;2023-11-19T03:08:30;78.13;;;35.22;;
25207;SDS011;13153;52.316;21.166;2023-11-19T03:10:56;73.47;;;34.05;;
25207;SDS011;13153;52.316;21.166;2023-11-19T03:13:21;76.57;;;34.22;;
25207;SDS011;13153;52.316;21.166;2023-11-19T03:15:47;77.75;;;35.00;;
25207;SDS011;13153;52.316;21.166;2023-11-19T03:18:13;80.43;;;36.03;;
25207;SDS011;13153;52.316;21.166;2023-11-19T03:20:39;75.15;;;34.33;;
25207;SDS011;13153;52.316;21.166;2023-11-19T03:23:05;79.28;;;35.35;;
25207;SDS011;13153;52.316;21.166;2023-11-19T03:25:31;75.65;;;34.25;;
25207;SDS011;13153;52.316;21.166;2023-11-19T03:28:01;76.85;;;35.08;;
25207;SDS011;13153;52.316;21.166;2023-11-19T03:30:29;77.35;;;35.80;;
25207;SDS011;13153;52.316;21.166;2023-11-19T03:32:55;81.18;;;36.65;;
25207;SDS011;13153;52.316;21.166;2023-11-19T03:35:22;83.05;;;35.90;;
25207;SDS011;13153;52.316;21.166;2023-11-19T03:37:49;88.35;;;36.38;;
25207;SDS011;13153;52.316;21.166;2023-11-19T03:40:16;74.97;;;35.10;;
25207;SDS011;13153;52.316;21.166;2023-11-19T03:42:44;82.82;;;34.72;;
25207;SDS011;13153;52.316;21.166;2023-11-19T03:45:10;80.90;;;35.40;;
25207;SDS011;13153;52.316;21.166;2023-11-19T03:47:37;81.50;;;34.70;;
25207;SDS011;13153;52.316;21.166;2023-11-19T03:50:03;82.55;;;35.63;;
25207;SDS011;13153;52.316;21.166;2023-11-19T03:52:30;90.75;;;37.15;;
25207;SDS011;13153;52.316;21.166;2023-11-19T03:54:56;88.60;;;37.33;;
25207;SDS011;13153;52.316;21.166;2023-11-19T03:57:22;90.35;;;37.65;;
25207;SDS011;13153;52.316;21.166;2023-11-19T03:59:48;93.90;;;37.90;;
25207;SDS011;13153;52.316;21.166;2023-11-19T04:02:15;82.13;;;35.95;;
25207;SDS011;13153;52.316;21.166;2023-11-19T04:04:41;85.00;;;37.75;;
25207;SDS011;13153;52.316;21.166;2023-11-19T04:07:07;87.50;;;36.65;;
25207;SDS011;13153;52.316;21.166;2023-11-19T04:09:33;84.95;;;36.15;;
25207;SDS011;13153;52.316;21.166;2023-11-19T04:11:59;83.55;;;35.15;;
25207;SDS011;13153;52.316;21.166;2023-11-19T04:14:25;82.50;;;35.78;;
25207;SDS011;13153;52.316;21.166;2023-11-19T04:16:52;89.28;;;36.28;;
25207;SDS011;13153;52.316;21.166;2023-11-19T04:19:18;84.60;;;36.30;;
25207;SDS011;13153;52.316;21.166;2023-11-19T04:21:45;91.05;;;37.53;;
25207;SDS011;13153;52.316;21.166;2023-11-19T04:24:11;85.97;;;36.20;;
25207;SDS011;13153;52.316;21.166;2023-11-19T04:26:44;84.03;;;36.63;;
25207;SDS011;13153;52.316;21.166;2023-11-19T04:29:15;83.47;;;36.10;;
25207;SDS011;13153;52.316;21.166;2023-11-19T04:31:42;86.30;;;35.15;;
25207;SDS011;13153;52.316;21.166;2023-11-19T04:34:12;90.32;;;36.80;;
25207;SDS011;13153;52.316;21.166;2023-11-19T04:36:38;88.80;;;36.70;;
25207;SDS011;13153;52.316;21.166;2023-11-19T04:39:04;92.88;;;36.75;;
25207;SDS011;13153;52.316;21.166;2023-11-19T04:41:34;92.22;;;37.42;;
25207;SDS011;13153;52.316;21.166;2023-11-19T04:44:01;92.35;;;37.55;;
25207;SDS011;13153;52.316;21.166;2023-11-19T04:46:27;87.75;;;37.25;;
25207;SDS011;13153;52.316;21.166;2023-11-19T04:48:53;90.15;;;37.70;;
25207;SDS011;13153;52.316;21.166;2023-11-19T04:51:19;92.22;;;37.85;;
25207;SDS011;13153;52.316;21.166;2023-11-19T04:53:44;94.72;;;37.38;;
25207;SDS011;13153;52.316;21.166;2023-11-19T04:56:11;94.32;;;38.75;;
25207;SDS011;13153;52.316;21.166;2023-11-19T04:58:38;90.53;;;36.75;;
25207;SDS011;13153;52.316;21.166;2023-11-19T05:01:04;95.18;;;36.83;;
25207;SDS011;13153;52.316;21.166;2023-11-19T05:03:30;97.05;;;38.28;;
25207;SDS011;13153;52.316;21.166;2023-11-19T05:05:56;89.82;;;36.80;;
25207;SDS011;13153;52.316;21.166;2023-11-19T05:08:23;97.40;;;38.88;;
25207;SDS011;13153;52.316;21.166;2023-11-19T05:10:48;93.35;;;37.15;;
25207;SDS011;13153;52.316;21.166;2023-11-19T05:13:14;87.45;;;37.38;;
25207;SDS011;13153;52.316;21.166;2023-11-19T05:15:40;90.50;;;36.45;;
25207;SDS011;13153;52.316;21.166;2023-11-19T05:18:06;89.60;;;37.13;;
25207;SDS011;13153;52.316;21.166;2023-11-19T05:20:32;95.78;;;37.88;;
25207;SDS011;13153;52.316;21.166;2023-11-19T05:22:58;88.10;;;35.88;;
25207;SDS011;13153;52.316;21.166;2023-11-19T05:25:25;96.53;;;37.05;;
25207;SDS011;13153;52.316;21.166;2023-11-19T05:27:52;96.70;;;36.30;;
25207;SDS011;13153;52.316;21.166;2023-11-19T05:30:18;93.90;;;36.65;;
25207;SDS011;13153;52.316;21.166;2023-11-19T05:32:44;97.32;;;35.72;;
25207;SDS011;13153;52.316;21.166;2023-11-19T05:35:10;94.15;;;37.60;;
25207;SDS011;13153;52.316;21.166;2023-11-19T05:37:37;87.53;;;35.67;;
25207;SDS011;13153;52.316;21.166;2023-11-19T05:40:03;94.13;;;36.92;;
25207;SDS011;13153;52.316;21.166;2023-11-19T05:42:37;94.38;;;37.78;;
25207;SDS011;13153;52.316;21.166;2023-11-19T05:45:03;93.05;;;36.20;;
25207;SDS011;13153;52.316;21.166;2023-11-19T05:47:29;96.38;;;38.53;;
25207;SDS011;13153;52.316;21.166;2023-11-19T05:49:54;91.50;;;37.10;;
25207;SDS011;13153;52.316;21.166;2023-11-19T05:52:20;95.78;;;37.28;;
25207;SDS011;13153;52.316;21.166;2023-11-19T05:54:47;94.25;;;37.65;;
25207;SDS011;13153;52.316;21.166;2023-11-19T05:57:16;98.20;;;37.22;;
25207;SDS011;13153;52.316;21.166;2023-11-19T05:59:47;91.30;;;36.88;;
25207;SDS011;13153;52.316;21.166;2023-11-19T06:02:13;90.25;;;37.17;;
25207;SDS011;13153;52.316;21.166;2023-11-19T06:04:39;90.88;;;36.58;;
25207;SDS011;13153;52.316;21.166;2023-11-19T06:07:05;87.85;;;36.08;;
25207;SDS011;13153;52.316;21.166;2023-11-19T06:09:30;94.70;;;37.30;;
25207;SDS011;13153;52.316;21.166;2023-11-19T06:11:58;90.30;;;36.55;;
25207;SDS011;13153;52.316;21.166;2023-11-19T06:14:26;88.43;;;36.13;;
25207;SDS011;13153;52.316;21.166;2023-11-19T06:16:52;91.60;;;37.78;;
25207;SDS011;13153;52.316;21.166;2023-11-19T06:19:18;92.15;;;35.75;;
25207;SDS011;13153;52.316;21.166;2023-11-19T06:21:44;92.47;;;35.15;;
25207;SDS011;13153;52.316;21.166;2023-11-19T06:24:10;89.22;;;35.80;;
25207;SDS011;13153;52.316;21.166;2023-11-19T06:26:35;86.40;;;34.97;;
25207;SDS011;13153;52.316;21.166;2023-11-19T06:29:01;85.28;;;34.75;;
25207;SDS011;13153;52.316;21.166;2023-11-19T06:31:27;88.00;;;35.10;;
25207;SDS011;13153;52.316;21.166;2023-11-19T06:33:52;79.25;;;33.70;;
25207;SDS011;13153;52.316;21.166;2023-11-19T06:36:18;85.55;;;36.47;;
25207;SDS011;13153;52.316;21.166;2023-11-19T06:38:44;80.75;;;33.95;;
25207;SDS011;13153;52.316;21.166;2023-11-19T06:41:10;88.53;;;35.75;;
25207;SDS011;13153;52.316;21.166;2023-11-19T06:43:36;83.50;;;34.85;;
25207;SDS011;13153;52.316;21.166;2023-11-19T06:46:02;85.85;;;33.67;;
25207;SDS011;13153;52.316;21.166;2023-11-19T06:48:31;78.05;;;32.75;;
25207;SDS011;13153;52.316;21.166;2023-11-19T06:51:00;78.53;;;33.13;;
25207;SDS011;13153;52.316;21.166;2023-11-19T06:53:25;77.93;;;32.67;;
25207;SDS011;13153;52.316;21.166;2023-11-19T06:55:53;75.35;;;30.73;;
25207;SDS011;13153;52.316;21.166;2023-11-19T06:58:19;68.18;;;29.95;;
25207;SDS011;13153;52.316;21.166;2023-11-19T07:00:45;73.70;;;32.45;;
25207;SDS011;13153;52.316;21.166;2023-11-19T07:03:12;70.70;;;29.95;;
25207;SDS011;13153;52.316;21.166;2023-11-19T07:05:38;74.47;;;31.73;;
25207;SDS011;13153;52.316;21.166;2023-11-19T07:08:05;75.32;;;30.60;;
25207;SDS011;13153;52.316;21.166;2023-11-19T07:10:32;74.45;;;30.08;;
25207;SDS011;13153;52.316;21.166;2023-11-19T07:12:58;76.50;;;30.33;;
25207;SDS011;13153;52.316;21.166;2023-11-19T07:15:25;70.18;;;28.98;;
25207;SDS011;13153;52.316;21.166;2023-11-19T07:17:51;67.90;;;30.83;;
25207;SDS011;13153;52.316;21.166;2023-11-19T07:20:19;69.18;;;30.05;;
25207;SDS011;13153;52.316;21.166;2023-11-19T07:22:45;68.22;;;28.80;;
25207;SDS011;13153;52.316;21.166;2023-11-19T07:25:14;69.32;;;29.02;;
25207;SDS011;13153;52.316;21.166;2023-11-19T07:27:40;63.28;;;28.55;;
25207;SDS011;13153;52.316;21.166;2023-11-19T07:30:06;75.57;;;31.63;;
25207;SDS011;13153;52.316;21.166;2023-11-19T07:32:32;68.57;;;30.65;;
25207;SDS011;13153;52.316;21.166;2023-11-19T07:34:58;61.60;;;28.35;;
25207;SDS011;13153;52.316;21.166;2023-11-19T07:37:24;58.13;;;26.17;;
25207;SDS011;13153;52.316;21.166;2023-11-19T07:39:51;55.15;;;26.67;;
25207;SDS011;13153;52.316;21.166;2023-11-19T07:42:16;53.08;;;24.70;;
25207;SDS011;13153;52.316;21.166;2023-11-19T07:45:01;47.78;;;23.30;;
25207;SDS011;13153;52.316;21.166;2023-11-19T07:47:27;49.28;;;23.73;;
25207;SDS011;13153;52.316;21.166;2023-11-19T07:49:53;47.95;;;22.98;;
25207;SDS011;13153;52.316;21.166;2023-11-19T07:52:19;44.33;;;23.13;;
25207;SDS011;13153;52.316;21.166;2023-11-19T07:54:45;45.30;;;23.05;;
25207;SDS011;13153;52.316;21.166;2023-11-19T07:57:10;40.03;;;22.02;;
25207;SDS011;13153;52.316;21.166;2023-11-19T07:59:36;43.53;;;22.73;;
25207;SDS011;13153;52.316;21.166;2023-11-19T08:02:02;42.60;;;22.02;;
25207;SDS011;13153;52.316;21.166;2023-11-19T08:04:30;42.67;;;21.52;;
25207;SDS011;13153;52.316;21.166;2023-11-19T08:06:55;38.83;;;21.77;;
25207;SDS011;13153;52.316;21.166;2023-11-19T08:09:21;39.25;;;20.73;;
25207;SDS011;13153;52.316;21.166;2023-11-19T08:11:48;35.10;;;19.80;;
25207;SDS011;13153;52.316;21.166;2023-11-19T08:14:14;38.55;;;19.95;;
25207;SDS011;13153;52.316;21.166;2023-11-19T08:16:40;38.92;;;20.60;;
25207;SDS011;13153;52.316;21.166;2023-11-19T08:19:06;37.88;;;20.75;;
25207;SDS011;13153;52.316;21.166;2023-11-19T08:21:33;37.75;;;20.58;;
25207;SDS011;13153;52.316;21.166;2023-11-19T08:23:59;35.25;;;20.02;;
25207;SDS011;13153;52.316;21.166;2023-11-19T08:26:24;36.92;;;19.90;;
25207;SDS011;13153;52.316;21.166;2023-11-19T08:28:50;32.55;;;19.70;;
25207;SDS011;13153;52.316;21.166;2023-11-19T08:31:17;32.35;;;18.15;;
25207;SDS011;13153;52.316;21.166;2023-11-19T08:33:42;32.60;;;18.63;;
25207;SDS011;13153;52.316;21.166;2023-11-19T08:36:08;33.65;;;19.00;;
25207;SDS011;13153;52.316;21.166;2023-11-19T08:38:40;34.63;;;19.45;;
25207;SDS011;13153;52.316;21.166;2023-11-19T08:41:07;36.50;;;19.77;;
25207;SDS011;13153;52.316;21.166;2023-11-19T08:43:32;38.15;;;19.63;;
25207;SDS011;13153;52.316;21.166;2023-11-19T08:45:58;40.08;;;20.45;;
25207;SDS011;13153;52.316;21.166;2023-11-19T08:48:24;35.00;;;19.40;;
25207;SDS011;13153;52.316;21.166;2023-11-19T08:50:50;33.35;;;19.25;;
25207;SDS011;13153;52.316;21.166;2023-11-19T08:53:16;33.28;;;18.77;;
25207;SDS011;13153;52.316;21.166;2023-11-19T08:55:42;30.30;;;17.70;;
25207;SDS011;13153;52.316;21.166;2023-11-19T08:58:08;30.90;;;17.35;;
25207;SDS011;13153;52.316;21.166;2023-11-19T09:00:33;29.45;;;17.83;;
25207;SDS011;13153;52.316;21.166;2023-11-19T09:02:59;29.88;;;17.83;;
25207;SDS011;13153;52.316;21.166;2023-11-19T09:05:25;32.45;;;18.58;;
25207;SDS011;13153;52.316;21.166;2023-11-19T09:07:51;30.90;;;18.20;;
25207;SDS011;13153;52.316;21.166;2023-11-19T09:10:17;28.42;;;18.15;;
25207;SDS011;13153;52.316;21.166;2023-11-19T09:12:43;29.63;;;17.33;;
25207;SDS011;13153;52.316;21.166;2023-11-19T09:15:09;28.35;;;17.23;;
25207;SDS011;13153;52.316;21.166;2023-11-19T09:17:38;28.65;;;17.08;;
25207;SDS011;13153;52.316;21.166;2023-11-19T09:20:04;29.33;;;16.92;;
25207;SDS011;13153;52.316;21.166;2023-11-19T09:22:30;30.30;;;16.20;;
25207;SDS011;13153;52.316;21.166;2023-11-19T09:24:56;26.48;;;16.52;;
25207;SDS011;13153;52.316;21.166;2023-11-19T09:27:24;27.05;;;15.88;;
25207;SDS011;13153;52.316;21.166;2023-11-19T09:29:50;26.08;;;16.38;;
25207;SDS011;13153;52.316;21.166;2023-11-19T09:32:22;28.02;;;15.90;;
25207;SDS011;13153;52.316;21.166;2023-11-19T09:34:48;28.08;;;16.88;;
25207;SDS011;13153;52.316;21.166;2023-11-19T09:37:14;29.52;;;16.95;;
25207;SDS011;13153;52.316;21.166;2023-11-19T09:39:40;26.23;;;16.67;;
25207;SDS011;13153;52.316;21.166;2023-11-19T09:42:09;25.98;;;15.68;;
25207;SDS011;13153;52.316;21.166;2023-11-19T09:44:36;30.00;;;16.90;;
25207;SDS011;13153;52.316;21.166;2023-11-19T09:47:04;27.52;;;15.98;;
25207;SDS011;13153;52.316;21.166;2023-11-19T09:49:32;27.92;;;15.88;;
25207;SDS011;13153;52.316;21.166;2023-11-19T09:52:00;25.10;;;15.27;;
25207;SDS011;13153;52.316;21.166;2023-11-19T09:54:28;26.80;;;16.30;;
25207;SDS011;13153;52.316;21.166;2023-11-19T09:56:54;28.40;;;15.95;;
25207;SDS011;13153;52.316;21.166;2023-11-19T09:59:29;27.67;;;16.20;;
25207;SDS011;13153;52.316;21.166;2023-11-19T10:01:56;26.92;;;15.98;;
25207;SDS011;13153;52.316;21.166;2023-11-19T10:04:22;28.55;;;16.83;;
25207;SDS011;13153;52.316;21.166;2023-11-19T10:06:50;26.08;;;15.48;;
25207;SDS011;13153;52.316;21.166;2023-11-19T10:09:17;29.67;;;15.88;;
25207;SDS011;13153;52.316;21.166;2023-11-19T10:11:44;27.95;;;16.10;;
25207;SDS011;13153;52.316;21.166;2023-11-19T10:14:09;26.30;;;15.30;;
25207;SDS011;13153;52.316;21.166;2023-11-19T10:16:35;25.60;;;15.50;;
25207;SDS011;13153;52.316;21.166;2023-11-19T10:19:02;25.67;;;15.85;;
25207;SDS011;13153;52.316;21.166;2023-11-19T10:21:28;24.38;;;14.60;;
25207;SDS011;13153;52.316;21.166;2023-11-19T10:23:57;25.73;;;15.15;;
25207;SDS011;13153;52.316;21.166;2023-11-19T10:26:25;26.80;;;14.90;;
25207;SDS011;13153;52.316;21.166;2023-11-19T10:28:52;26.27;;;15.88;;
25207;SDS011;13153;52.316;21.166;2023-11-19T10:31:20;30.30;;;16.48;;
25207;SDS011;13153;52.316;21.166;2023-11-19T10:33:50;30.13;;;15.95;;
25207;SDS011;13153;52.316;21.166;2023-11-19T10:36:16;37.08;;;18.15;;
25207;SDS011;13153;52.316;21.166;2023-11-19T10:38:51;33.35;;;16.73;;
25207;SDS011;13153;52.316;21.166;2023-11-19T10:41:28;29.42;;;16.58;;
25207;SDS011;13153;52.316;21.166;2023-11-19T10:43:56;30.45;;;17.40;;
25207;SDS011;13153;52.316;21.166;2023-11-19T10:46:23;30.88;;;17.55;;
25207;SDS011;13153;52.316;21.166;2023-11-19T10:49:06;32.10;;;17.73;;
25207;SDS011;13153;52.316;21.166;2023-11-19T10:51:33;26.95;;;16.05;;
25207;SDS011;13153;52.316;21.166;2023-11-19T10:54:03;29.33;;;16.83;;
25207;SDS011;13153;52.316;21.166;2023-11-19T10:56:31;28.10;;;16.23;;
25207;SDS011;13153;52.316;21.166;2023-11-19T10:59:01;32.05;;;17.23;;
25207;SDS011;13153;52.316;21.166;2023-11-19T11:01:33;29.52;;;16.20;;
25207;SDS011;13153;52.316;21.166;2023-11-19T11:04:13;27.63;;;16.33;;
25207;SDS011;13153;52.316;21.166;2023-11-19T11:06:40;29.52;;;16.65;;
25207;SDS011;13153;52.316;21.166;2023-11-19T11:09:07;30.77;;;16.50;;
25207;SDS011;13153;52.316;21.166;2023-11-19T11:11:39;30.08;;;16.25;;
25207;SDS011;13153;52.316;21.166;2023-11-19T11:14:08;28.85;;;17.02;;
25207;SDS011;13153;52.316;21.166;2023-11-19T11:16:40;29.60;;;16.52;;
25207;SDS011;13153;52.316;21.166;2023-11-19T11:19:12;26.88;;;15.88;;
25207;SDS011;13153;52.316;21.166;2023-11-19T11:21:38;27.55;;;15.80;;
25207;SDS011;13153;52.316;21.166;2023-11-19T11:33:10;28.85;;;17.23;;
25207;SDS011;13153;52.316;21.166;2023-11-19T11:36:19;35.85;;;18.10;;
25207;SDS011;13153;52.316;21.166;2023-11-19T11:38:48;31.88;;;18.05;;
25207;SDS011;13153;52.316;21.166;2023-11-19T11:41:22;35.47;;;18.60;;
25207;SDS011;13153;52.316;21.166;2023-11-19T11:43:53;33.67;;;18.77;;
25207;SDS011;13153;52.316;21.166;2023-11-19T11:49:08;35.05;;;19.88;;
25207;SDS011;13153;52.316;21.166;2023-11-19T11:54:10;35.08;;;19.13;;
25207;SDS011;13153;52.316;21.166;2023-11-19T12:02:12;32.00;;;17.83;;
25207;SDS011;13153;52.316;21.166;2023-11-19T12:04:47;32.08;;;18.33;;
25207;SDS011;13153;52.316;21.166;2023-11-19T12:07:21;38.60;;;20.05;;
25207;SDS011;13153;52.316;21.166;2023-11-19T12:10:08;30.85;;;18.45;;
25207;SDS011;13153;52.316;21.166;2023-11-19T12:12:38;34.15;;;18.20;;
25207;SDS011;13153;52.316;21.166;2023-11-19T12:17:36;38.53;;;20.10;;
25207;SDS011;13153;52.316;21.166;2023-11-19T12:20:09;44.53;;;21.75;;
25207;SDS011;13153;52.316;21.166;2023-11-19T12:22:37;49.20;;;22.17;;
25207;SDS011;13153;52.316;21.166;2023-11-19T12:25:07;38.95;;;19.75;;
25207;SDS011;13153;52.316;21.166;2023-11-19T12:27:36;39.97;;;19.83;;
25207;SDS011;13153;52.316;21.166;2023-11-19T12:30:06;45.58;;;21.10;;
25207;SDS011;13153;52.316;21.166;2023-11-19T12:32:43;45.97;;;22.30;;
25207;SDS011;13153;52.316;21.166;2023-11-19T12:35:11;46.08;;;22.42;;
25207;SDS011;13153;52.316;21.166;2023-11-19T12:37:47;38.35;;;19.88;;
25207;SDS011;13153;52.316;21.166;2023-11-19T12:40:19;36.13;;;19.60;;
25207;SDS011;13153;52.316;21.166;2023-11-19T12:42:51;34.53;;;18.58;;
25207;SDS011;13153;52.316;21.166;2023-11-19T12:45:18;34.95;;;17.92;;
25207;SDS011;13153;52.316;21.166;2023-11-19T12:47:46;34.95;;;20.92;;
25207;SDS011;13153;52.316;21.166;2023-11-19T12:50:14;35.05;;;20.10;;
25207;SDS011;13153;52.316;21.166;2023-11-19T12:52:43;39.42;;;21.48;;
25207;SDS011;13153;52.316;21.166;2023-11-19T12:55:26;35.30;;;19.83;;
25207;SDS011;13153;52.316;21.166;2023-11-19T12:57:55;41.58;;;20.33;;
25207;SDS011;13153;52.316;21.166;2023-11-19T13:00:23;37.75;;;20.48;;
25207;SDS011;13153;52.316;21.166;2023-11-19T13:05:26;34.08;;;19.50;;
25207;SDS011;13153;52.316;21.166;2023-11-19T13:08:05;34.88;;;19.83;;
25207;SDS011;13153;52.316;21.166;2023-11-19T13:10:54;39.80;;;21.77;;
25207;SDS011;13153;52.316;21.166;2023-11-19T13:13:19;34.92;;;19.95;;
25207;SDS011;13153;52.316;21.166;2023-11-19T13:15:45;37.25;;;19.90;;
25207;SDS011;13153;52.316;21.166;2023-11-19T13:18:12;36.15;;;20.92;;
25207;SDS011;13153;52.316;21.166;2023-11-19T13:20:39;39.58;;;20.30;;
25207;SDS011;13153;52.316;21.166;2023-11-19T13:23:05;38.15;;;20.90;;
25207;SDS011;13153;52.316;21.166;2023-11-19T13:25:35;36.47;;;21.13;;
25207;SDS011;13153;52.316;21.166;2023-11-19T13:28:01;34.67;;;20.98;;
25207;SDS011;13153;52.316;21.166;2023-11-19T13:30:27;32.88;;;19.55;;
25207;SDS011;13153;52.316;21.166;2023-11-19T13:32:54;39.55;;;22.58;;
25207;SDS011;13153;52.316;21.166;2023-11-19T13:35:20;35.13;;;20.85;;
25207;SDS011;13153;52.316;21.166;2023-11-19T13:37:49;39.08;;;22.38;;
25207;SDS011;13153;52.316;21.166;2023-11-19T13:40:16;34.92;;;20.15;;
25207;SDS011;13153;52.316;21.166;2023-11-19T13:42:42;39.65;;;21.95;;
25207;SDS011;13153;52.316;21.166;2023-11-19T13:45:11;41.15;;;22.17;;
25207;SDS011;13153;52.316;21.166;2023-11-19T13:47:39;37.45;;;21.60;;
25207;SDS011;13153;52.316;21.166;2023-11-19T13:50:10;37.75;;;20.75;;
25207;SDS011;13153;52.316;21.166;2023-11-19T13:52:41;40.35;;;22.17;;
25207;SDS011;13153;52.316;21.166;2023-11-19T13:55:11;40.92;;;21.55;;
25207;SDS011;13153;52.316;21.166;2023-11-19T13:57:38;38.42;;;21.95;;
25207;SDS011;13153;52.316;21.166;2023-11-19T14:00:08;45.72;;;22.95;;
25207;SDS011;13153;52.316;21.166;2023-11-19T14:02:44;43.95;;;23.60;;
25207;SDS011;13153;52.316;21.166;2023-11-19T14:05:14;43.80;;;22.63;;
25207;SDS011;13153;52.316;21.166;2023-11-19T14:07:44;43.63;;;23.35;;
25207;SDS011;13153;52.316;21.166;2023-11-19T14:10:13;38.90;;;20.98;;
25207;SDS011;13153;52.316;21.166;2023-11-19T14:12:40;42.00;;;23.00;;
25207;SDS011;13153;52.316;21.166;2023-11-19T14:15:07;40.67;;;22.55;;
25207;SDS011;13153;52.316;21.166;2023-11-19T14:17:34;40.35;;;21.73;;
25207;SDS011;13153;52.316;21.166;2023-11-19T14:20:01;38.63;;;21.90;;
25207;SDS011;13153;52.316;21.166;2023-11-19T14:22:37;38.25;;;22.33;;
25207;SDS011;13153;52.316;21.166;2023-11-19T14:25:08;39.35;;;22.50;;
25207;SDS011;13153;52.316;21.166;2023-11-19T14:27:38;43.60;;;24.27;;
25207;SDS011;13153;52.316;21.166;2023-11-19T14:30:06;45.17;;;23.90;;
25207;SDS011;13153;52.316;21.166;2023-11-19T14:32:35;42.30;;;22.77;;
25207;SDS011;13153;52.316;21.166;2023-11-19T14:35:01;47.50;;;25.05;;
25207;SDS011;13153;52.316;21.166;2023-11-19T14:37:28;43.55;;;23.02;;